Time,TemperatureF,DewpointF,PressureIn,WindDirection,WindDirectionDegrees,WindSpeedMPH,WindSpeedGustMPH,Humidity,HourlyPrecipIn,Conditions,Clouds,dailyrainin,SoftwareType,DateUTC
2013-02-25 00:02:00,61.0,55.0,29.60,SE,145,7.0,17.0,80,0.00,,,-99.99,,2013-02-25 06:02:00,
2013-02-25 00:11:00,61.0,55.0,29.60,SE,145,7.0,17.0,80,0.00,,,-99.99,,2013-02-25 06:11:00,
2013-02-25 00:21:00,62.0,55.0,29.60,SE,145,5.0,13.0,79,0.00,,,-99.99,,2013-02-25 06:21:00,
2013-02-25 00:32:00,62.0,55.0,29.59,SE,141,10.0,13.0,79,0.00,,,-99.99,,2013-02-25 06:32:00,
2013-02-25 00:42:00,62.0,55.0,29.59,SE,141,10.0,13.0,79,0.00,,,-99.99,,2013-02-25 06:42:00,
2013-02-25 00:52:00,62.0,55.0,29.59,SE,141,10.0,13.0,79,0.00,,,-99.99,,2013-02-25 06:52:00,
2013-02-25 01:01:00,62.0,55.0,29.59,SE,141,10.0,13.0,79,0.00,,,-99.99,,2013-02-25 07:01:00,
2013-02-25 01:11:00,62.0,54.0,29.58,South,172,5.0,19.0,75,0.00,,,-99.99,,2013-02-25 07:11:00,
2013-02-25 01:21:00,62.0,54.0,29.58,South,172,5.0,19.0,75,0.00,,,-99.99,,2013-02-25 07:21:00,
2013-02-25 01:32:00,62.0,54.0,29.61,SSW,212,4.0,13.0,75,0.00,,,-99.99,,2013-02-25 07:32:00,
2013-02-25 01:42:00,62.0,54.0,29.61,SSW,212,4.0,13.0,75,0.00,,,-99.99,,2013-02-25 07:42:00,
2013-02-25 01:52:00,63.0,55.0,29.61,South,191,5.0,13.0,75,0.00,,,-99.99,,2013-02-25 07:52:00,
2013-02-25 02:01:00,63.0,55.0,29.61,South,191,5.0,13.0,75,0.00,,,-99.99,,2013-02-25 08:01:00,
2013-02-25 02:11:00,63.0,55.0,29.62,SW,219,5.0,10.0,74,0.00,,,-99.99,,2013-02-25 08:11:00,
2013-02-25 02:21:00,63.0,55.0,29.62,SW,219,5.0,10.0,74,0.00,,,-99.99,,2013-02-25 08:21:00,
2013-02-25 02:31:00,63.0,55.0,29.62,SW,219,5.0,10.0,74,0.00,,,-99.99,,2013-02-25 08:31:00,
2013-02-25 02:42:00,63.0,55.0,29.62,SW,219,5.0,10.0,74,0.00,,,-99.99,,2013-02-25 08:42:00,
2013-02-25 02:52:00,63.0,55.0,29.63,SW,233,3.0,7.0,74,0.00,,,-99.99,,2013-02-25 08:52:00,
2013-02-25 03:01:00,63.0,55.0,29.63,SW,233,3.0,7.0,74,0.00,,,-99.99,,2013-02-25 09:01:00,
2013-02-25 03:12:00,63.0,55.0,29.63,SW,233,3.0,7.0,74,0.00,,,-99.99,,2013-02-25 09:12:00,
2013-02-25 03:21:00,54.0,47.0,29.65,WNW,293,4.0,29.0,78,0.06,,,-99.99,,2013-02-25 09:21:00,
2013-02-25 03:32:00,53.0,45.0,29.66,NW,316,11.0,14.0,73,0.00,,,-99.99,,2013-02-25 09:32:00,
2013-02-25 03:42:00,53.0,45.0,29.66,NW,316,11.0,14.0,73,0.00,,,-99.99,,2013-02-25 09:42:00,
2013-02-25 03:51:00,53.0,41.0,29.65,WNW,293,9.0,16.0,64,0.00,,,-99.99,,2013-02-25 09:51:00,
2013-02-25 04:01:00,52.0,39.0,29.65,WNW,283,3.0,11.0,62,0.00,,,-99.99,,2013-02-25 10:01:00,
2013-02-25 04:11:00,53.0,39.0,29.66,WNW,283,2.0,11.0,59,0.00,,,-99.99,,2013-02-25 10:11:00,
2013-02-25 04:21:00,53.0,39.0,29.66,WNW,283,2.0,11.0,59,0.00,,,-99.99,,2013-02-25 10:21:00,
2013-02-25 04:32:00,52.0,38.0,29.66,West,278,6.0,13.0,59,0.00,,,-99.99,,2013-02-25 10:32:00,
2013-02-25 04:42:00,52.0,38.0,29.66,West,278,6.0,13.0,59,0.00,,,-99.99,,2013-02-25 10:42:00,
2013-02-25 04:52:00,52.0,38.0,29.67,NW,314,2.0,8.0,58,0.00,,,-99.99,,2013-02-25 10:52:00,
2013-02-25 05:01:00,52.0,38.0,29.67,NW,314,2.0,8.0,58,0.00,,,-99.99,,2013-02-25 11:01:00,
2013-02-25 05:11:00,52.0,38.0,29.67,NW,314,2.0,8.0,58,0.00,,,-99.99,,2013-02-25 11:11:00,
2013-02-25 05:21:00,52.0,37.0,29.67,West,271,3.0,11.0,56,0.00,,,-99.99,,2013-02-25 11:21:00,
2013-02-25 05:32:00,52.0,37.0,29.67,West,271,3.0,11.0,56,0.00,,,-99.99,,2013-02-25 11:32:00,
2013-02-25 05:42:00,52.0,37.0,29.67,West,271,3.0,11.0,56,0.00,,,-99.99,,2013-02-25 11:42:00,
2013-02-25 05:52:00,52.0,33.0,29.69,NNW,331,5.0,13.0,48,0.00,,,-99.99,,2013-02-25 11:52:00,
2013-02-25 06:02:00,52.0,31.0,29.69,WNW,285,13.0,13.0,45,0.00,,,-99.99,,2013-02-25 12:02:00,
2013-02-25 06:11:00,52.0,31.0,29.69,WNW,285,13.0,13.0,45,0.00,,,-99.99,,2013-02-25 12:11:00,
2013-02-25 06:21:00,52.0,31.0,29.69,WNW,285,13.0,13.0,45,0.00,,,-99.99,,2013-02-25 12:21:00,
2013-02-25 06:32:00,52.0,31.0,29.69,WNW,285,13.0,13.0,45,0.00,,,-99.99,,2013-02-25 12:32:00,
2013-02-25 06:42:00,52.0,31.0,29.69,WNW,285,13.0,13.0,45,0.00,,,-99.99,,2013-02-25 12:42:00,
2013-02-25 06:55:00,51.0,29.0,29.70,WNW,293,9.0,18.0,43,0.00,,,-99.99,,2013-02-25 12:55:00,
2013-02-25 07:02:00,51.0,30.0,29.71,WNW,302,9.0,18.0,45,0.00,,,-99.99,,2013-02-25 13:02:00,
2013-02-25 07:12:00,51.0,30.0,29.71,WNW,302,9.0,18.0,45,0.00,,,-99.99,,2013-02-25 13:12:00,
2013-02-25 07:22:00,50.0,31.0,29.72,West,267,9.0,13.0,47,0.00,,,-99.99,,2013-02-25 13:22:00,
2013-02-25 07:32:00,50.0,31.0,29.72,West,267,9.0,13.0,47,0.00,,,-99.99,,2013-02-25 13:32:00,
2013-02-25 07:42:00,50.0,31.0,29.72,West,267,9.0,13.0,47,0.00,,,-99.99,,2013-02-25 13:42:00,
2013-02-25 07:52:00,50.0,29.0,29.72,West,278,5.0,20.0,45,0.00,,,-99.99,,2013-02-25 13:52:00,
2013-02-25 08:03:00,49.0,28.0,29.73,West,264,15.0,17.0,44,0.00,,,-99.99,,2013-02-25 14:03:00,
2013-02-25 08:17:00,49.0,28.0,29.73,West,264,15.0,17.0,44,0.00,,,-99.99,,2013-02-25 14:17:00,
2013-02-25 08:32:00,49.0,25.0,29.74,WNW,284,13.0,16.0,38,0.00,,,-99.99,,2013-02-25 14:32:00,
2013-02-25 08:42:00,49.0,25.0,29.74,WNW,284,13.0,16.0,38,0.00,,,-99.99,,2013-02-25 14:42:00,
2013-02-25 08:52:00,49.0,23.0,29.74,West,277,13.0,25.0,36,0.00,,,-99.99,,2013-02-25 14:52:00,
2013-02-25 09:02:00,50.0,23.0,29.74,WSW,255,7.0,28.0,35,0.00,,,-99.99,,2013-02-25 15:02:00,
2013-02-25 09:11:00,50.0,23.0,29.74,WSW,255,7.0,28.0,35,0.00,,,-99.99,,2013-02-25 15:11:00,
2013-02-25 09:21:00,50.0,21.0,29.75,WNW,282,16.0,30.0,31,0.00,,,-99.99,,2013-02-25 15:21:00,
2013-02-25 09:32:00,51.0,21.0,29.75,West,278,20.0,31.0,31,0.00,,,-99.99,,2013-02-25 15:32:00,
2013-02-25 09:41:00,51.0,21.0,29.75,West,278,20.0,31.0,31,0.00,,,-99.99,,2013-02-25 15:41:00,
2013-02-25 09:51:00,51.0,21.0,29.74,West,281,24.0,32.0,31,0.00,,,-99.99,,2013-02-25 15:51:00,
2013-02-25 10:02:00,51.0,21.0,29.74,West,281,24.0,32.0,31,0.00,,,-99.99,,2013-02-25 16:02:00,
2013-02-25 10:11:00,51.0,21.0,29.74,West,281,24.0,32.0,31,0.00,,,-99.99,,2013-02-25 16:11:00,
2013-02-25 10:21:00,51.0,21.0,29.74,West,281,24.0,32.0,31,0.00,,,-99.99,,2013-02-25 16:21:00,
2013-02-25 10:32:00,51.0,22.0,29.74,WNW,283,22.0,29.0,32,0.00,,,-99.99,,2013-02-25 16:32:00,
2013-02-25 10:42:00,51.0,22.0,29.74,WNW,283,22.0,29.0,32,0.00,,,-99.99,,2013-02-25 16:42:00,
2013-02-25 10:52:00,52.0,25.0,29.73,WNW,286,19.0,39.0,34,0.00,,,-99.99,,2013-02-25 16:52:00,
2013-02-25 11:01:00,52.0,27.0,29.75,WNW,284,23.0,41.0,37,0.00,,,-99.99,,2013-02-25 17:01:00,
2013-02-25 11:11:00,52.0,27.0,29.75,WNW,284,23.0,41.0,37,0.00,,,-99.99,,2013-02-25 17:11:00,
2013-02-25 11:21:00,51.0,28.0,29.76,West,266,23.0,34.0,41,0.00,,,-99.99,,2013-02-25 17:21:00,
2013-02-25 11:31:00,51.0,28.0,29.76,West,266,23.0,34.0,41,0.00,,,-99.99,,2013-02-25 17:31:00,
2013-02-25 11:41:00,51.0,28.0,29.76,West,266,23.0,34.0,41,0.00,,,-99.99,,2013-02-25 17:41:00,
2013-02-25 11:52:00,51.0,28.0,29.76,West,266,23.0,34.0,41,0.00,,,-99.99,,2013-02-25 17:52:00,
2013-02-25 12:01:00,49.0,28.0,29.77,West,281,17.0,36.0,44,0.00,,,-99.99,,2013-02-25 18:01:00,
2013-02-25 12:12:00,49.0,28.0,29.77,West,281,17.0,36.0,44,0.00,,,-99.99,,2013-02-25 18:12:00,
2013-02-25 12:21:00,49.0,28.0,29.77,West,281,17.0,36.0,44,0.00,,,-99.99,,2013-02-25 18:21:00,
2013-02-25 12:32:00,49.0,29.0,29.78,WSW,248,16.0,40.0,45,0.00,,,-99.99,,2013-02-25 18:32:00,
2013-02-25 12:41:00,49.0,29.0,29.78,WSW,248,16.0,40.0,45,0.00,,,-99.99,,2013-02-25 18:41:00,
2013-02-25 12:51:00,49.0,29.0,29.78,WSW,248,16.0,40.0,45,0.00,,,-99.99,,2013-02-25 18:51:00,
2013-02-25 13:01:00,49.0,29.0,29.78,WSW,248,16.0,40.0,45,0.00,,,-99.99,,2013-02-25 19:01:00,
2013-02-25 13:52:00,46.0,25.0,29.76,NW,308,16.0,41.0,44,0.00,,,-99.99,,2013-02-25 19:52:00,
2013-02-25 14:01:00,47.0,26.0,29.76,WNW,288,28.0,40.0,43,0.00,,,-99.99,,2013-02-25 20:01:00,
2013-02-25 14:11:00,47.0,26.0,29.76,WNW,288,28.0,40.0,43,0.00,,,-99.99,,2013-02-25 20:11:00,
2013-02-25 14:21:00,47.0,26.0,29.76,WNW,288,28.0,40.0,43,0.00,,,-99.99,,2013-02-25 20:21:00,
2013-02-25 14:32:00,47.0,26.0,29.76,WNW,288,28.0,40.0,43,0.00,,,-99.99,,2013-02-25 20:32:00,
2013-02-25 14:41:00,47.0,26.0,29.76,WNW,288,28.0,40.0,43,0.00,,,-99.99,,2013-02-25 20:41:00,
2013-02-25 15:01:00,44.0,27.0,29.76,WNW,302,21.0,41.0,51,0.00,,,-99.99,,2013-02-25 21:01:00,
2013-02-25 15:11:00,44.0,27.0,29.76,WNW,302,21.0,41.0,51,0.00,,,-99.99,,2013-02-25 21:11:00,
2013-02-25 15:21:00,44.0,27.0,29.76,WNW,302,21.0,41.0,51,0.00,,,-99.99,,2013-02-25 21:21:00,
2013-02-25 15:32:00,44.0,27.0,29.78,NW,325,30.0,34.0,50,0.00,,,-99.99,,2013-02-25 21:32:00,
2013-02-25 15:42:00,44.0,27.0,29.78,NW,325,30.0,34.0,50,0.00,,,-99.99,,2013-02-25 21:42:00,
2013-02-25 15:52:00,44.0,28.0,29.78,WNW,298,16.0,34.0,52,0.00,,,-99.99,,2013-02-25 21:52:00,
2013-02-25 16:01:00,44.0,28.0,29.79,West,281,19.0,32.0,52,0.00,,,-99.99,,2013-02-25 22:01:00,
2013-02-25 16:11:00,44.0,28.0,29.79,West,281,19.0,32.0,52,0.00,,,-99.99,,2013-02-25 22:11:00,
2013-02-25 16:21:00,43.0,27.0,29.79,WNW,300,24.0,32.0,52,0.00,,,-99.99,,2013-02-25 22:21:00,
2013-02-25 16:32:00,43.0,26.0,29.80,NW,318,27.0,36.0,51,0.00,,,-99.99,,2013-02-25 22:32:00,
2013-02-25 16:42:00,43.0,26.0,29.80,NW,318,27.0,36.0,51,0.00,,,-99.99,,2013-02-25 22:42:00,
2013-02-25 16:52:00,44.0,27.0,29.80,West,269,16.0,33.0,51,0.00,,,-99.99,,2013-02-25 22:52:00,
2013-02-25 17:01:00,44.0,27.0,29.82,NW,305,12.0,39.0,51,0.00,,,-99.99,,2013-02-25 23:01:00,
2013-02-25 17:11:00,44.0,27.0,29.82,NW,305,12.0,39.0,51,0.00,,,-99.99,,2013-02-25 23:11:00,
2013-02-25 17:22:00,44.0,27.0,29.82,NW,305,12.0,39.0,51,0.00,,,-99.99,,2013-02-25 23:22:00,
2013-02-25 17:31:00,43.0,27.0,29.83,NW,317,23.0,35.0,52,0.00,,,-99.99,,2013-02-25 23:31:00,
2013-02-25 17:41:00,43.0,27.0,29.83,NW,317,23.0,35.0,52,0.00,,,-99.99,,2013-02-25 23:41:00,
2013-02-25 17:52:00,43.0,27.0,29.83,WNW,291,31.0,36.0,53,0.00,,,-99.99,,2013-02-25 23:52:00,
2013-02-25 18:01:00,43.0,27.0,29.83,WNW,291,31.0,36.0,53,0.00,,,-99.99,,2013-02-26 00:01:00,
2013-02-25 18:12:00,43.0,27.0,29.83,WNW,291,31.0,36.0,53,0.00,,,-99.99,,2013-02-26 00:12:00,
2013-02-25 18:21:00,43.0,28.0,29.86,WNW,296,10.0,31.0,54,0.00,,,-99.99,,2013-02-26 00:21:00,
2013-02-25 18:32:00,43.0,28.0,29.87,NW,313,31.0,31.0,54,0.00,,,-99.99,,2013-02-26 00:32:00,
2013-02-25 18:42:00,43.0,28.0,29.87,NW,313,31.0,31.0,54,0.00,,,-99.99,,2013-02-26 00:42:00,
2013-02-25 18:51:00,43.0,28.0,29.88,WNW,293,17.0,34.0,55,0.00,,,-99.99,,2013-02-26 00:51:00,
2013-02-25 19:02:00,42.0,28.0,29.89,WNW,294,12.0,33.0,57,0.00,,,-99.99,,2013-02-26 01:02:00,
2013-02-25 19:11:00,42.0,28.0,29.89,WNW,294,12.0,33.0,57,0.00,,,-99.99,,2013-02-26 01:11:00,
2013-02-25 19:21:00,42.0,28.0,29.89,WNW,294,12.0,33.0,57,0.00,,,-99.99,,2013-02-26 01:21:00,
2013-02-25 19:31:00,42.0,28.0,29.90,NNW,334,23.0,36.0,58,0.00,,,-99.99,,2013-02-26 01:31:00,
2013-02-25 19:41:00,42.0,28.0,29.90,NNW,334,23.0,36.0,58,0.00,,,-99.99,,2013-02-26 01:41:00,
2013-02-25 19:52:00,43.0,30.0,29.91,NW,311,13.0,28.0,59,0.00,,,-99.99,,2013-02-26 01:52:00,
2013-02-25 20:01:00,43.0,30.0,29.91,NW,311,13.0,28.0,59,0.00,,,-99.99,,2013-02-26 02:01:00,
2013-02-25 20:11:00,43.0,30.0,29.91,NW,311,13.0,28.0,59,0.00,,,-99.99,,2013-02-26 02:11:00,
2013-02-25 20:21:00,43.0,29.0,29.92,NW,313,17.0,33.0,57,0.00,,,-99.99,,2013-02-26 02:21:00,
2013-02-25 20:32:00,43.0,29.0,29.92,NW,313,17.0,33.0,57,0.00,,,-99.99,,2013-02-26 02:32:00,
2013-02-25 20:42:00,43.0,29.0,29.92,NW,313,17.0,33.0,57,0.00,,,-99.99,,2013-02-26 02:42:00,
2013-02-25 20:52:00,43.0,28.0,29.94,West,274,15.0,33.0,55,0.00,,,-99.99,,2013-02-26 02:52:00,
2013-02-25 21:01:00,43.0,28.0,29.94,WNW,295,19.0,28.0,55,0.00,,,-99.99,,2013-02-26 03:01:00,
2013-02-25 21:11:00,43.0,28.0,29.94,WNW,295,19.0,28.0,55,0.00,,,-99.99,,2013-02-26 03:11:00,
2013-02-25 21:21:00,43.0,28.0,29.94,WNW,295,19.0,28.0,55,0.00,,,-99.99,,2013-02-26 03:21:00,
2013-02-25 21:32:00,43.0,28.0,29.96,NNW,327,14.0,26.0,55,0.00,,,-99.99,,2013-02-26 03:32:00,
2013-02-25 21:42:00,43.0,28.0,29.96,NNW,327,14.0,26.0,55,0.00,,,-99.99,,2013-02-26 03:42:00,
2013-02-25 21:52:00,43.0,28.0,29.97,WNW,290,14.0,26.0,55,0.00,,,-99.99,,2013-02-26 03:52:00,
2013-02-25 22:01:00,43.0,28.0,29.97,WNW,290,14.0,26.0,55,0.00,,,-99.99,,2013-02-26 04:01:00,
2013-02-25 22:11:00,43.0,28.0,29.97,WNW,290,14.0,26.0,55,0.00,,,-99.99,,2013-02-26 04:11:00,
2013-02-25 22:21:00,43.0,28.0,29.97,WNW,290,14.0,26.0,55,0.00,,,-99.99,,2013-02-26 04:21:00,
2013-02-25 22:32:00,43.0,28.0,29.97,WNW,293,12.0,23.0,54,0.00,,,-99.99,,2013-02-26 04:32:00,
2013-02-25 22:42:00,43.0,28.0,29.97,WNW,293,12.0,23.0,54,0.00,,,-99.99,,2013-02-26 04:42:00,
2013-02-25 22:52:00,43.0,28.0,29.97,WNW,293,12.0,23.0,54,0.00,,,-99.99,,2013-02-26 04:52:00,
2013-02-25 23:01:00,43.0,28.0,29.97,NNW,327,16.0,30.0,54,0.00,,,-99.99,,2013-02-26 05:01:00,
2013-02-25 23:11:00,42.0,27.0,29.97,WNW,286,22.0,28.0,54,0.00,,,-99.99,,2013-02-26 05:11:00,
2013-02-25 23:22:00,42.0,27.0,29.97,WNW,286,22.0,28.0,54,0.00,,,-99.99,,2013-02-26 05:22:00,
2013-02-25 23:31:00,42.0,27.0,29.97,NW,318,8.0,25.0,55,0.00,,,-99.99,,2013-02-26 05:31:00,
2013-02-25 23:42:00,42.0,27.0,29.97,NW,318,8.0,25.0,55,0.00,,,-99.99,,2013-02-26 05:42:00,
2013-02-25 23:52:00,41.0,27.0,29.97,WNW,302,16.0,25.0,56,0.00,,,-99.99,,2013-02-26 05:52:00,